Latest Weather Observations for Mount Magnet Airport

IDW60801

Issued at 9:02 am WST Wednesday 27 May 2015 (issued every 30 minutes, with the page automatically refreshed every 10 minutes)

About weather observations | Map of weather stations | Latest weather observations for WA | Other Formats
Station Details ID: 007600 Name: MOUNT MAGNET AERO Lat: -28.12 Lon: 117.84 Height: 407.0 m
Data from the previous 72 hours. | See also: Recent months at Mount Magnet Airport
Date/Time
WST
Temp
°C
App
Temp
°C
Dew
Point
Rel
Hum
%
Delta-T
°C
Wind Press
QNH
hPa
Press
MSL
hPa
Rain
since 9 am
mm
Dir
 
Spd
km/h
Gust
km/h
Spd
kts
Gust
kts
27/09:00am 14.9 12.2 7.2 60 3.9 ENE 11 13 6 7 1022.0 1020.9 0.0
27/08:30am 14.1 13.3 6.5 60 3.7 CALM 0 4 0 2 1021.9 1020.8 0.0
27/08:00am 11.5 10.4 5.2 65 2.9 CALM 0 0 0 0 1021.8 1020.7 0.0
27/07:30am 10.4 9.3 5.2 70 2.4 CALM 0 0 0 0 1021.5 1020.5 0.0
27/07:00am 9.1 7.9 4.5 73 2.1 CALM 0 0 0 0 1021.4 1020.4 0.0
27/06:30am 9.6 8.4 4.6 71 2.3 CALM 0 0 0 0 1021.2 1020.1 0.0
27/06:00am 9.2 6.7 4.6 73 2.1 NNE 7 9 4 5 1020.9 1019.8 0.0
27/05:30am 9.5 8.2 4.1 69 2.4 CALM 0 0 0 0 1020.7 1019.6 0.0
27/05:00am 10.2 9.0 4.8 69 2.5 CALM 0 0 0 0 1020.6 1019.5 0.0
27/04:30am 10.5 8.2 4.9 68 2.6 NNE 6 9 3 5 1020.8 1019.7 0.0
27/04:00am 10.7 8.4 4.6 66 2.8 NE 6 7 3 4 1020.8 1019.7 0.0
27/03:30am 10.9 8.4 4.8 66 2.8 NE 7 9 4 5 1020.9 1019.8 0.0
27/03:00am 11.4 9.9 4.8 64 3.1 ESE 2 7 1 4 1020.9 1019.8 0.0
27/02:30am 12.5 10.1 5.2 61 3.5 SSE 7 9 4 5 1020.8 1019.7 0.0
27/02:00am 12.9 10.7 5.3 60 3.6 SE 6 7 3 4 1020.9 1019.8 0.0
27/01:30am 13.3 11.0 5.5 59 3.7 SE 7 9 4 5 1021.2 1020.1 0.0
27/01:00am 13.2 10.9 5.6 60 3.6 E 7 9 4 5 1021.3 1020.3 0.0
27/12:30am 13.9 11.2 5.5 57 4.0 ESE 9 11 5 6 1021.5 1020.5 0.0
27/12:00am 14.5 12.4 5.8 56 4.2 SE 6 7 3 4 1021.8 1020.7 0.0
 
Date/Time
WST
Temp
°C
App
Temp
°C
Dew
Point
Rel
Hum
%
Delta-T
°C
Wind Press
QNH
hPa
Press
MSL
hPa
Rain
since 9 am
mm
Dir
 
Spd
km/h
Gust
km/h
Spd
kts
Gust
kts
26/11:30pm 14.9 13.6 6.0 55 4.4 SE 2 7 1 4 1022.1 1021.0 0.0
26/11:00pm 15.8 13.2 6.3 53 4.7 S 9 11 5 6 1022.3 1021.2 0.0
26/10:30pm 16.3 13.4 6.4 52 4.9 SSE 11 13 6 7 1022.7 1021.6 0.0
26/10:00pm 16.6 13.8 7.0 53 4.8 SE 11 15 6 8 1022.5 1021.4 0.0
26/09:30pm 17.5 15.2 7.5 52 5.1 SSE 9 13 5 7 1022.4 1021.3 0.0
26/09:00pm 17.6 15.9 7.6 52 5.1 S 6 7 3 4 1022.3 1021.2 0.0
26/08:30pm 18.4 16.7 7.5 49 5.6 SSE 6 7 3 4 1022.3 1021.2 0.0
26/08:00pm 19.4 17.1 7.5 46 6.2 SSE 9 9 5 5 1022.2 1021.1 0.0
26/07:30pm 19.9 17.9 7.3 44 6.6 S 7 11 4 6 1022.1 1021.0 0.0
26/07:00pm 20.4 17.7 7.4 43 6.8 SSW 11 13 6 7 1021.8 1020.7 0.0
26/06:30pm 21.0 18.7 7.3 41 7.2 SSW 9 11 5 6 1021.5 1020.5 0.0
26/06:00pm 21.1 20.1 8.7 45 6.6 SSE 4 9 2 5 1021.2 1020.1 0.0
26/05:30pm 21.4 19.8 8.7 44 6.8 SE 7 9 4 5 1021.0 1019.9 0.0
26/05:00pm 21.6 19.6 8.5 43 7.0 ESE 9 11 5 6 1020.8 1019.7 0.0
26/04:30pm 22.2 19.4 8.7 42 7.3 SE 13 17 7 9 1020.7 1019.6 0.0
26/04:00pm 23.0 21.1 9.0 41 7.6 SSE 9 15 5 8 1020.7 1019.6 0.0
26/03:30pm 23.1 20.1 9.1 41 7.7 S 15 26 8 14 1020.6 1019.5 0.0
26/03:00pm 21.9 20.2 9.8 46 6.6 SSE 9 15 5 8 1020.7 1019.6 0.0
26/02:30pm 22.7 20.0 10.2 45 7.0 SSE 15 20 8 11 1020.8 1019.7 0.0
26/02:00pm 22.2 19.9 10.4 47 6.6 SSW 13 19 7 10 1021.0 1019.9 0.0
26/01:30pm 21.9 19.8 11.0 50 6.1 SW 13 17 7 9 1021.1 1020.0 0.0
26/01:00pm 21.7 19.9 9.6 46 6.6 ESE 9 15 5 8 1021.5 1020.5 0.0
26/12:30pm 22.4 20.9 10.5 47 6.7 SE 9 17 5 9 1021.9 1020.8 0.0
26/12:00pm 21.1 20.0 10.6 51 5.8 SE 7 13 4 7 1022.4 1021.3 0.0
26/11:30am 20.8 19.9 11.2 54 5.4 ENE 7 13 4 7 1022.9 1021.8 0.0
26/11:00am 20.7 20.0 12.1 58 4.9 NNE 7 11 4 6 1023.1 1022.0 0.0
26/10:30am 18.9 19.2 12.2 65 3.8 ESE 2 9 1 5 1023.4 1022.3 0.0
26/10:00am 17.3 16.6 12.0 71 3.0 ENE 7 11 4 6 1023.6 1022.6 0.0
26/09:30am 15.9 15.0 11.3 74 2.5 NE 7 11 4 6 1023.6 1022.6 0.0
26/09:00am 14.5 14.3 10.5 77 2.1 S 2 6 1 3 1023.4 1022.3 0.0
26/08:30am 12.8 12.0 9.6 81 1.7 SSW 4 6 2 3 1023.3 1022.2 0.0
26/08:00am 11.8 11.5 8.8 82 1.5 CALM 0 0 0 0 1023.2 1022.1 0.0
26/07:30am 11.1 10.6 7.8 80 1.6 CALM 0 0 0 0 1023.2 1022.1 0.0
26/07:00am 10.6 9.0 8.0 84 1.3 NNE 6 7 3 4 1022.9 1021.8 0.0
26/06:30am 10.5 8.8 7.7 83 1.4 NE 6 9 3 5 1022.6 1021.5 0.0
26/06:00am 10.4 8.5 7.5 82 1.4 NE 7 9 4 5 1022.2 1021.1 0.0
26/05:30am 10.8 8.9 7.7 81 1.5 NE 7 9 4 5 1022.2 1021.1 0.0
26/05:00am 11.4 10.9 7.9 79 1.7 CALM 0 0 0 0 1021.7 1020.6 0.0
26/04:30am 12.1 10.4 8.4 78 1.9 SSW 7 9 4 5 1021.4 1020.4 0.0
26/04:00am 12.4 10.9 8.3 76 2.1 S 6 7 3 4 1021.4 1020.4 0.0
26/03:30am 12.7 10.6 8.2 74 2.3 S 9 11 5 6 1021.2 1020.1 0.0
26/03:00am 13.0 11.3 8.3 73 2.4 S 7 9 4 5 1021.2 1020.1 0.0
26/02:30am 13.3 11.9 9.0 75 2.2 NNE 6 11 3 6 1021.0 1019.9 0.0
26/02:00am 13.6 11.2 8.7 72 2.5 NNE 11 13 6 7 1020.9 1019.8 0.0
26/01:30am 13.7 10.7 7.9 68 2.9 NNE 13 15 7 8 1021.0 1019.9 0.0
26/01:00am 13.7 11.0 7.2 65 3.2 NNE 11 13 6 7 1021.1 1020.0 0.0
26/12:30am 14.0 11.2 6.8 62 3.6 NNE 11 13 6 7 1021.2 1020.1 0.0
26/12:00am 14.4 11.5 6.7 60 3.8 NNE 11 13 6 7 1021.3 1020.3 0.0
 
Date/Time
WST
Temp
°C
App
Temp
°C
Dew
Point
Rel
Hum
%
Delta-T
°C
Wind Press
QNH
hPa
Press
MSL
hPa
Rain
since 9 am
mm
Dir
 
Spd
km/h
Gust
km/h
Spd
kts
Gust
kts
25/11:30pm 14.3 11.5 6.9 61 3.7 NNE 11 13 6 7 1021.7 1020.6 0.0
25/11:00pm 14.4 11.5 6.7 60 3.8 N 11 13 6 7 1021.8 1020.7 0.0
25/10:30pm 14.9 12.5 7.0 59 4.0 N 9 11 5 6 1021.9 1020.8 0.0
25/10:00pm 15.4 12.7 7.2 58 4.1 N 11 13 6 7 1021.9 1020.8 0.0
25/09:30pm 15.5 12.7 7.0 57 4.3 NNE 11 11 6 6 1021.8 1020.7 0.0
25/09:00pm 16.5 14.2 7.4 55 4.6 N 9 13 5 7 1021.8 1020.7 0.0
25/08:30pm 16.6 14.0 7.8 56 4.5 N 11 13 6 7 1021.8 1020.7 0.0
25/08:00pm 16.9 14.8 8.3 57 4.5 N 9 9 5 5 1021.4 1020.4 0.0
25/07:30pm 17.5 15.3 7.8 53 5.0 NNE 9 11 5 6 1021.2 1020.1 0.0
25/07:00pm 18.8 16.2 7.9 49 5.7 NNE 11 13 6 7 1020.8 1019.7 0.0
25/06:30pm 19.7 17.1 7.8 46 6.2 NNE 11 13 6 7 1020.6 1019.5 0.0
25/06:00pm 20.7 18.5 8.0 44 6.7 NE 9 13 5 7 1020.2 1019.1 0.0
25/05:30pm 21.6 19.3 7.4 40 7.5 ENE 9 11 5 6 1020.0 1018.9 0.0
25/05:00pm 22.6 20.3 7.6 38 8.0 NE 9 13 5 7 1019.7 1018.6 0.0
25/04:30pm 23.2 20.2 7.7 37 8.3 NE 13 20 7 11 1019.3 1018.2 0.0
25/04:00pm 23.6 21.5 8.1 37 8.3 NNE 9 13 5 7 1019.1 1017.9 0.0
25/03:30pm 23.5 20.6 8.0 37 8.3 N 13 24 7 13 1019.2 1018.0 0.0
25/03:00pm 23.8 20.3 7.0 34 8.9 N 15 22 8 12 1019.1 1017.9 0.0
25/02:30pm 23.5 21.3 9.5 41 7.7 NNW 11 15 6 8 1019.2 1018.0 0.0
25/02:00pm 23.0 20.3 10.4 45 7.0 N 15 22 8 12 1019.3 1018.2 0.0
25/01:30pm 23.1 21.4 11.2 47 6.8 NE 11 17 6 9 1019.5 1018.4 0.0
25/01:00pm 22.2 20.2 11.6 51 6.0 ENE 13 20 7 11 1019.7 1018.6 0.0
25/12:30pm 21.9 20.5 12.2 54 5.6 NE 11 20 6 11 1020.2 1019.1 0.0
25/12:00pm 21.3 19.9 12.2 56 5.2 NE 11 17 6 9 1020.6 1019.5 0.0
25/11:30am 21.1 20.1 13.3 61 4.6 NE 11 19 6 10 1020.9 1019.8 0.0
25/11:00am 20.4 19.4 13.4 64 4.1 NE 11 17 6 9 1021.4 1020.4 0.0
25/10:30am 19.8 19.2 13.5 67 3.7 NE 9 17 5 9 1021.8 1020.7 0.0
25/10:00am 18.6 17.5 13.2 71 3.1 NNE 11 17 6 9 1022.0 1020.9 0.0
25/09:30am 17.4 15.8 12.7 74 2.7 NNE 13 17 7 9 1022.0 1020.9 0.0
25/09:00am 16.5 14.4 12.5 77 2.2 NE 15 19 8 10 1022.0 1020.9 0.0
25/08:30am 15.2 13.0 12.0 81 1.8 NE 15 20 8 11 1021.9 1020.8 0.0
25/08:00am 14.3 13.1 11.5 83 1.5 NE 9 13 5 7 1021.7 1020.6 0.0
25/07:30am 12.1 10.9 10.3 89 0.9 NE 7 7 4 4 1021.4 1020.4 0.0
25/07:00am 10.4 8.9 9.0 91 0.7 ENE 7 9 4 5 1021.0 1019.9 0.0
25/06:30am 10.3 8.7 8.7 90 0.8 ENE 7 9 4 5 1020.8 1019.7 0.0
25/06:00am 10.6 9.2 8.9 89 0.9 E 6 7 3 4 1020.5 1019.4 0.0
25/05:30am 11.1 9.9 9.4 89 0.9 ESE 6 7 3 4 1020.2 1019.1 0.0
25/05:00am 11.4 9.7 9.7 89 0.9 ESE 9 9 5 5 1019.9 1018.8 0.0
25/04:30am 11.9 10.2 9.8 87 1.1 ESE 9 9 5 5 1019.8 1018.7 0.0
25/04:00am 12.0 10.2 9.6 85 1.2 ESE 9 11 5 6 1019.6 1018.5 0.0
25/03:30am 12.2 10.8 9.4 83 1.4 ESE 7 9 4 5 1019.6 1018.5 0.0
25/03:00am 12.9 11.7 10.3 84 1.4 E 7 11 4 6 1019.7 1018.6 0.0
25/02:30am 13.4 11.8 10.2 81 1.7 SE 9 11 5 6 1020.0 1018.9 0.0
25/02:00am 13.3 13.3 9.9 80 1.8 CALM 0 0 0 0 1020.0 1018.9 0.0
25/01:30am 14.5 13.6 10.5 77 2.1 E 6 7 3 4 1020.0 1018.9 0.0
25/01:00am 14.5 13.0 10.7 78 2.0 SSE 9 11 5 6 1019.9 1018.8 0.0
25/12:30am 15.6 14.8 11.0 74 2.5 ENE 6 7 3 4 1020.0 1018.9 0.0
25/12:00am 16.3 15.4 11.2 72 2.8 NE 7 13 4 7 1020.2 1019.1 0.0
 
Date/Time
WST
Temp
°C
App
Temp
°C
Dew
Point
Rel
Hum
%
Delta-T
°C
Wind Press
QNH
hPa
Press
MSL
hPa
Rain
since 9 am
mm
Dir
 
Spd
km/h
Gust
km/h
Spd
kts
Gust
kts
24/11:30pm 16.3 14.9 11.0 71 2.9 NE 9 11 5 6 1020.3 1019.2 0.0
24/11:00pm 16.4 16.6 10.5 68 3.2 CALM 0 0 0 0 1020.3 1019.2 0.0
24/10:30pm 16.9 16.1 11.0 68 3.2 NE 6 9 3 5 1020.2 1019.1 0.0
24/10:00pm 17.6 16.2 10.9 65 3.7 NE 9 15 5 8 1020.0 1018.9 0.0
24/09:30pm 18.3 16.1 10.7 61 4.2 ENE 13 17 7 9 1020.1 1019.0 0.0
24/09:00pm 19.1 16.7 10.1 56 4.9 ENE 13 20 7 11 1019.9 1018.8 0.0
24/08:30pm 19.9 18.1 9.5 51 5.6 ENE 9 17 5 9 1019.8 1018.7 0.0
24/08:00pm 20.2 18.6 7.9 45 6.5 SE 6 7 3 4 1019.6 1018.5 0.0
24/07:30pm 20.4 18.6 8.1 45 6.5 S 7 9 4 5 1019.3 1018.2 0.0
24/07:00pm 21.0 19.1 7.6 42 7.0 SE 7 7 4 4 1018.9 1017.8 0.0
24/06:30pm 21.4 19.4 7.3 40 7.4 ESE 7 9 4 5 1018.7 1017.6 0.0
24/06:00pm 21.9 19.5 7.0 38 7.8 ESE 9 11 5 6 1018.3 1017.2 0.0
24/05:30pm 22.6 20.2 6.8 36 8.3 SSE 9 13 5 7 1018.0 1016.9 0.0
24/05:00pm 23.0 20.6 7.1 36 8.4 SSE 9 13 5 7 1017.8 1016.7 0.0
24/04:30pm 23.4 21.0 7.1 35 8.6 SE 9 15 5 8 1017.7 1016.6 0.0
24/04:00pm 23.1 20.7 7.2 36 8.4 ESE 9 13 5 7 1017.7 1016.6 0.0
24/03:30pm 23.7 21.9 7.3 35 8.7 S 6 9 3 5 1017.7 1016.6 0.0
24/03:00pm 22.9 21.2 7.4 37 8.2 E 6 7 3 4 1017.6 1016.5 0.0
24/02:30pm 23.3 20.9 7.0 35 8.6 ENE 9 19 5 10 1017.6 1016.5 0.0
24/02:00pm 23.1 20.4 7.2 36 8.4 SSE 11 20 6 11 1017.6 1016.5 0.0
24/01:30pm 23.3 20.2 7.4 36 8.5 ESE 13 20 7 11 1017.9 1016.8 0.0
24/01:00pm 22.6 19.4 6.8 36 8.3 ESE 13 22 7 12 1018.3 1017.2 0.0
24/12:30pm 21.9 19.8 8.1 41 7.4 SE 9 17 5 9 1018.8 1017.7 0.0
24/12:00pm 21.7 19.5 7.9 41 7.3 ESE 9 17 5 9 1019.3 1018.2 0.0
24/11:30am 20.5 17.5 7.5 43 6.8 SSE 13 19 7 10 1019.7 1018.6 0.0
24/11:00am 20.2 15.8 6.5 41 7.0 SE 19 24 10 13 1020.0 1018.9 0.0
24/10:30am 20.0 15.5 6.0 40 7.1 SE 19 26 10 14 1020.2 1019.1 0.0
24/10:00am 19.1 14.4 5.9 42 6.6 SSE 20 26 11 14 1020.4 1019.3 0.0
24/09:30am 17.2 13.5 6.1 48 5.5 SSE 15 17 8 9 1020.5 1019.4 0.0

Other Formats:

Comma delimited format used in spreadsheet applications
http://www.bom.gov.au/fwo/IDW60801/IDW60801.94429.axf

JavaScript Object Notation format (JSON) in row-major order
http://www.bom.gov.au/fwo/IDW60801/IDW60801.94429.json